Time;durP1;ratioP1;P1;durP2;ratioP2;P2;SDS_P1;SDS_P2;PMS_P1;PMS_P2;Temp;Humidity;BMP_temperature;BMP_pressure;BME280_temperature;BME280_humidity;BME280_pressure;Samples;Min_cycle;Max_cycle;Signal;HPM_P1;HPM_P2
2023/12/21 00:02:25;;;;;;;31.80;6.25;;;;;;;;;;5087200;28;20392;-82
2023/12/21 00:04:51;;;;;;;24.15;5.93;;;;;;;;;;5086263;28;20428;-82
2023/12/21 00:07:17;;;;;;;25.08;5.40;;;;;;;;;;5060378;28;20406;-82
2023/12/21 00:09:43;;;;;;;25.53;5.40;;;;;;;;;;5070593;28;21077;-81
2023/12/21 00:12:09;;;;;;;26.85;5.60;;;;;;;;;;5056053;28;20403;-81
2023/12/21 00:14:35;;;;;;;27.23;5.45;;;;;;;;;;5053273;28;20526;-81
2023/12/21 00:17:01;;;;;;;29.02;5.97;;;;;;;;;;5053433;28;20414;-82
2023/12/21 00:19:28;;;;;;;27.60;5.53;;;;;;;;;;5027551;28;20429;-83
2023/12/21 00:21:54;;;;;;;26.02;6.05;;;;;;;;;;5040106;28;20449;-82
2023/12/21 00:24:20;;;;;;;25.27;5.65;;;;;;;;;;5051948;28;20429;-82
2023/12/21 00:26:46;;;;;;;25.40;5.43;;;;;;;;;;5070738;28;20435;-82
2023/12/21 00:29:13;;;;;;;28.45;5.90;;;;;;;;;;5036563;28;20799;-82
2023/12/21 00:31:39;;;;;;;29.30;6.15;;;;;;;;;;5039099;28;20796;-82
2023/12/21 00:34:06;;;;;;;22.95;5.38;;;;;;;;;;5052419;28;20488;-81
2023/12/21 00:36:32;;;;;;;23.08;5.68;;;;;;;;;;5062808;28;20399;-81
2023/12/21 00:38:58;;;;;;;27.03;5.83;;;;;;;;;;5070197;28;20431;-80
2023/12/21 00:41:24;;;;;;;27.17;5.50;;;;;;;;;;5070300;28;20808;-82
2023/12/21 00:43:50;;;;;;;24.70;5.65;;;;;;;;;;5047821;28;20403;-82
2023/12/21 00:46:16;;;;;;;21.63;5.43;;;;;;;;;;5041271;28;20404;-82
2023/12/21 00:48:43;;;;;;;29.35;6.68;;;;;;;;;;5069939;28;20419;-81
2023/12/21 00:51:09;;;;;;;25.42;5.57;;;;;;;;;;5058136;28;20886;-82
2023/12/21 00:53:35;;;;;;;19.43;5.57;;;;;;;;;;5061896;28;20538;-81
2023/12/21 00:56:01;;;;;;;24.80;5.63;;;;;;;;;;5056803;28;20436;-81
2023/12/21 00:58:27;;;;;;;23.13;5.95;;;;;;;;;;5052252;28;20895;-79
2023/12/21 01:00:55;;;;;;;25.13;5.82;;;;;;;;;;5069868;28;20411;-82
2023/12/21 01:03:21;;;;;;;25.95;5.88;;;;;;;;;;5052751;28;20483;-81
2023/12/21 01:05:47;;;;;;;27.20;5.70;;;;;;;;;;5102765;28;20450;-82
2023/12/21 01:08:13;;;;;;;27.48;6.10;;;;;;;;;;5037281;28;20503;-79
2023/12/21 01:10:39;;;;;;;24.08;5.82;;;;;;;;;;5052374;28;20900;-79
2023/12/21 01:13:06;;;;;;;27.42;5.80;;;;;;;;;;5075614;28;20403;-80
2023/12/21 01:15:32;;;;;;;25.73;6.18;;;;;;;;;;5041285;28;21090;-79
2023/12/21 01:17:58;;;;;;;29.50;6.10;;;;;;;;;;5069726;28;20403;-79
2023/12/21 01:20:26;;;;;;;27.40;6.23;;;;;;;;;;5061994;28;20592;-79
2023/12/21 01:22:52;;;;;;;29.92;6.30;;;;;;;;;;5048716;28;20411;-80
2023/12/21 01:25:18;;;;;;;22.83;6.30;;;;;;;;;;5072123;28;20950;-79
2023/12/21 01:27:44;;;;;;;30.15;6.55;;;;;;;;;;5098564;28;20768;-79
2023/12/21 01:30:11;;;;;;;26.45;5.95;;;;;;;;;;5072425;28;20405;-79
2023/12/21 01:32:37;;;;;;;28.63;7.10;;;;;;;;;;5055861;28;21080;-79
2023/12/21 01:35:03;;;;;;;25.80;6.90;;;;;;;;;;5072132;28;20407;-79
2023/12/21 01:37:29;;;;;;;29.10;7.45;;;;;;;;;;5063865;28;20891;-80
2023/12/21 01:39:55;;;;;;;29.90;6.70;;;;;;;;;;5039458;28;20431;-79
2023/12/21 01:42:21;;;;;;;27.45;7.38;;;;;;;;;;5062227;28;20431;-79
2023/12/21 01:44:47;;;;;;;32.85;8.02;;;;;;;;;;5059004;28;20404;-79
2023/12/21 01:47:14;;;;;;;25.50;7.50;;;;;;;;;;5039702;28;20446;-79
2023/12/21 01:49:41;;;;;;;30.13;7.47;;;;;;;;;;5065968;28;20961;-79
2023/12/21 01:52:08;;;;;;;26.08;7.65;;;;;;;;;;5071988;28;20759;-79
2023/12/21 01:54:36;;;;;;;31.50;8.10;;;;;;;;;;5057087;28;20404;-79
2023/12/21 01:57:02;;;;;;;33.63;7.23;;;;;;;;;;5050306;28;20424;-79
2023/12/21 01:59:29;;;;;;;27.42;7.72;;;;;;;;;;5062851;28;20895;-79
2023/12/21 02:01:55;;;;;;;39.20;7.30;;;;;;;;;;5071948;28;20403;-79
2023/12/21 02:04:21;;;;;;;28.60;6.32;;;;;;;;;;5089422;28;20778;-82
2023/12/21 02:06:47;;;;;;;29.98;7.28;;;;;;;;;;5075693;28;20408;-83
2023/12/21 02:09:14;;;;;;;22.80;7.00;;;;;;;;;;5072753;28;20446;-83
2023/12/21 02:11:40;;;;;;;34.42;7.03;;;;;;;;;;5069412;28;20404;-82
2023/12/21 02:14:06;;;;;;;27.75;7.10;;;;;;;;;;5081655;28;20406;-82
2023/12/21 02:16:43;;;;;;;30.90;7.95;;;;;;;;;;5061980;28;20410;-82
2023/12/21 02:19:10;;;;;;;26.25;6.65;;;;;;;;;;5051119;28;20423;-83
2023/12/21 02:21:38;;;;;;;30.65;7.18;;;;;;;;;;5038622;28;20411;-82
2023/12/21 02:24:04;;;;;;;24.45;6.95;;;;;;;;;;5055387;28;20420;-79
2023/12/21 02:26:30;;;;;;;23.83;6.97;;;;;;;;;;5055359;28;20411;-79
2023/12/21 02:28:56;;;;;;;32.20;6.88;;;;;;;;;;5036416;28;20424;-79
2023/12/21 02:31:22;;;;;;;27.55;6.82;;;;;;;;;;5051099;28;20778;-79
2023/12/21 02:33:48;;;;;;;25.45;7.25;;;;;;;;;;5054182;28;20396;-79
2023/12/21 02:36:14;;;;;;;21.67;6.63;;;;;;;;;;5038099;28;20410;-79
2023/12/21 02:38:40;;;;;;;24.48;7.05;;;;;;;;;;5052226;28;20426;-79
2023/12/21 02:41:06;;;;;;;28.45;7.70;;;;;;;;;;5071229;28;20403;-79
2023/12/21 02:43:32;;;;;;;27.63;7.40;;;;;;;;;;5087478;28;20449;-79
2023/12/21 02:45:58;;;;;;;24.63;7.07;;;;;;;;;;5037088;28;20462;-79
2023/12/21 02:48:24;;;;;;;26.65;7.70;;;;;;;;;;5101582;28;20485;-79
2023/12/21 02:50:51;;;;;;;31.20;8.20;;;;;;;;;;5056814;28;20400;-79
2023/12/21 02:53:17;;;;;;;27.70;7.43;;;;;;;;;;5053968;28;20481;-79
2023/12/21 02:55:43;;;;;;;32.63;7.47;;;;;;;;;;5054278;28;20457;-79
2023/12/21 02:58:09;;;;;;;24.33;7.70;;;;;;;;;;5066503;28;20405;-79
2023/12/21 03:00:35;;;;;;;26.38;7.05;;;;;;;;;;5070410;28;20494;-79
2023/12/21 03:03:01;;;;;;;31.20;7.97;;;;;;;;;;5051111;28;20419;-79
2023/12/21 03:05:27;;;;;;;22.07;7.03;;;;;;;;;;5048421;28;20976;-79
2023/12/21 03:07:54;;;;;;;22.73;7.43;;;;;;;;;;5030321;28;20871;-78
2023/12/21 03:10:20;;;;;;;30.70;7.55;;;;;;;;;;5054221;28;20403;-78
2023/12/21 03:12:46;;;;;;;21.17;7.65;;;;;;;;;;5054390;28;20433;-80
2023/12/21 03:15:12;;;;;;;25.85;7.28;;;;;;;;;;5064718;28;20444;-79
2023/12/21 03:17:38;;;;;;;21.65;7.40;;;;;;;;;;5067300;28;20431;-79
2023/12/21 03:20:07;;;;;;;22.33;7.32;;;;;;;;;;5050117;28;20426;-79
2023/12/21 03:22:33;;;;;;;25.75;7.80;;;;;;;;;;5079017;28;20404;-79
2023/12/21 03:24:59;;;;;;;25.60;7.47;;;;;;;;;;5062192;28;20787;-79
2023/12/21 03:27:25;;;;;;;24.10;7.93;;;;;;;;;;5081606;28;20438;-79
2023/12/21 03:29:52;;;;;;;26.20;7.47;;;;;;;;;;5053700;28;20432;-79
2023/12/21 03:32:18;;;;;;;28.53;7.87;;;;;;;;;;5053044;28;20907;-79
2023/12/21 03:34:44;;;;;;;21.90;7.20;;;;;;;;;;5070505;28;20899;-79
2023/12/21 03:37:10;;;;;;;25.52;7.78;;;;;;;;;;5042381;28;20462;-79
2023/12/21 03:39:36;;;;;;;26.65;8.02;;;;;;;;;;5044788;28;20400;-78
2023/12/21 03:42:02;;;;;;;21.15;7.90;;;;;;;;;;5053527;28;20407;-79
2023/12/21 03:44:28;;;;;;;22.48;7.50;;;;;;;;;;5038895;28;20427;-79
2023/12/21 03:46:54;;;;;;;28.87;7.97;;;;;;;;;;5054136;28;20399;-79
2023/12/21 03:49:20;;;;;;;23.60;8.07;;;;;;;;;;5037009;28;20427;-79
2023/12/21 03:51:46;;;;;;;24.90;7.70;;;;;;;;;;5058041;28;20415;-78
2023/12/21 03:54:13;;;;;;;31.60;8.23;;;;;;;;;;5051890;28;20423;-79
2023/12/21 03:56:39;;;;;;;28.25;7.60;;;;;;;;;;5066116;28;20891;-78
2023/12/21 03:59:05;;;;;;;25.48;7.88;;;;;;;;;;5036970;28;20414;-79
2023/12/21 04:01:32;;;;;;;22.80;7.18;;;;;;;;;;5053227;28;20400;-79
2023/12/21 04:03:58;;;;;;;21.05;6.88;;;;;;;;;;5052820;28;20899;-79
2023/12/21 04:06:24;;;;;;;24.53;6.70;;;;;;;;;;5070374;28;20434;-80
2023/12/21 04:08:53;;;;;;;24.65;6.63;;;;;;;;;;5038530;28;20434;-80
2023/12/21 04:11:19;;;;;;;26.17;7.13;;;;;;;;;;5053257;28;20469;-80
2023/12/21 04:13:47;;;;;;;21.90;7.28;;;;;;;;;;5036795;28;20395;-80
2023/12/21 04:16:13;;;;;;;22.92;7.13;;;;;;;;;;5060507;28;20500;-79
2023/12/21 04:18:39;;;;;;;23.30;6.43;;;;;;;;;;5036977;28;20407;-79
2023/12/21 04:21:08;;;;;;;19.27;6.50;;;;;;;;;;5069474;28;20934;-79
2023/12/21 04:23:34;;;;;;;19.87;6.77;;;;;;;;;;5036480;28;20759;-80
2023/12/21 04:26:01;;;;;;;22.45;6.88;;;;;;;;;;5054361;28;20431;-79
2023/12/21 04:28:27;;;;;;;19.35;6.45;;;;;;;;;;5068903;28;20420;-79
2023/12/21 04:30:53;;;;;;;23.10;7.30;;;;;;;;;;5035888;28;20519;-79
2023/12/21 04:33:19;;;;;;;20.73;6.88;;;;;;;;;;5076363;28;20450;-80
2023/12/21 04:35:45;;;;;;;20.63;7.00;;;;;;;;;;5035951;28;20395;-79
2023/12/21 04:38:15;;;;;;;24.23;7.50;;;;;;;;;;5059282;28;20438;-80
2023/12/21 04:40:41;;;;;;;22.90;7.95;;;;;;;;;;5053361;28;20830;-79
2023/12/21 04:43:07;;;;;;;21.97;7.00;;;;;;;;;;5085657;28;20498;-79
2023/12/21 04:45:33;;;;;;;23.80;7.50;;;;;;;;;;5070372;28;20403;-83
2023/12/21 04:47:59;;;;;;;22.63;7.55;;;;;;;;;;5043813;28;20429;-82
2023/12/21 04:50:25;;;;;;;23.92;7.03;;;;;;;;;;5044867;28;20911;-83
2023/12/21 04:52:53;;;;;;;21.05;7.05;;;;;;;;;;5056561;28;20395;-83
2023/12/21 04:55:19;;;;;;;24.15;7.07;;;;;;;;;;5057460;28;20399;-84
2023/12/21 04:57:45;;;;;;;20.08;6.63;;;;;;;;;;5040845;28;20427;-82
2023/12/21 05:00:11;;;;;;;22.55;6.25;;;;;;;;;;5040092;28;20422;-83
2023/12/21 05:02:37;;;;;;;22.02;6.57;;;;;;;;;;5073995;28;20413;-83
2023/12/21 05:05:04;;;;;;;21.05;5.82;;;;;;;;;;5073967;28;21001;-83
2023/12/21 05:07:30;;;;;;;23.40;6.50;;;;;;;;;;5037472;28;20471;-83
2023/12/21 05:09:59;;;;;;;24.92;5.97;;;;;;;;;;5066343;28;20427;-83
2023/12/21 05:12:26;;;;;;;22.52;6.20;;;;;;;;;;5064623;28;20408;-80
2023/12/21 05:14:53;;;;;;;16.52;5.30;;;;;;;;;;5056802;28;20899;-80
2023/12/21 05:17:19;;;;;;;25.23;5.63;;;;;;;;;;5040218;28;20408;-80
2023/12/21 05:19:46;;;;;;;24.23;6.22;;;;;;;;;;5064746;28;20420;-80
2023/12/21 05:22:12;;;;;;;19.60;5.55;;;;;;;;;;5063268;28;20428;-83
2023/12/21 05:24:41;;;;;;;17.85;5.60;;;;;;;;;;5037766;28;20930;-84
2023/12/21 05:27:07;;;;;;;21.95;5.70;;;;;;;;;;5008979;28;20409;-84
2023/12/21 05:29:33;;;;;;;22.17;6.25;;;;;;;;;;5050497;28;20441;-84
2023/12/21 05:31:59;;;;;;;21.85;5.40;;;;;;;;;;5039578;28;21057;-84
2023/12/21 05:34:25;;;;;;;23.33;5.67;;;;;;;;;;5037575;28;20450;-84
2023/12/21 05:36:51;;;;;;;23.05;5.78;;;;;;;;;;5025416;28;20399;-84
2023/12/21 05:39:18;;;;;;;20.33;5.30;;;;;;;;;;5018297;28;20919;-84
2023/12/21 05:41:47;;;;;;;24.85;6.32;;;;;;;;;;5056166;28;20418;-83
2023/12/21 05:44:13;;;;;;;18.88;5.90;;;;;;;;;;5037170;28;20966;-84
2023/12/21 05:46:41;;;;;;;21.05;5.80;;;;;;;;;;5038631;28;20409;-85
2023/12/21 05:49:10;;;;;;;23.55;6.13;;;;;;;;;;5024256;28;20418;-84
2023/12/21 05:51:39;;;;;;;6.57;1.67;;;;;;;;;;5047122;28;20488;-84
2023/12/21 05:54:05;;;;;;;0.20;0.20;;;;;;;;;;5037569;28;20731;-84
2023/12/21 05:56:31;;;;;;;0.40;0.40;;;;;;;;;;5028223;28;20473;-85
2023/12/21 05:58:58;;;;;;;0.60;0.50;;;;;;;;;;5034801;28;20936;-83
2023/12/21 06:01:26;;;;;;;1.60;0.28;;;;;;;;;;5035248;28;20440;-84
2023/12/21 06:03:52;;;;;;;0.22;0.22;;;;;;;;;;5054914;28;20406;-84
2023/12/21 06:06:19;;;;;;;0.20;0.20;;;;;;;;;;5052624;28;20425;-84
2023/12/21 06:08:45;;;;;;;0.47;0.32;;;;;;;;;;5019481;28;20436;-85
2023/12/21 06:11:11;;;;;;;0.10;0.10;;;;;;;;;;5035610;28;20404;-84
2023/12/21 06:13:40;;;;;;;0.30;0.30;;;;;;;;;;5019443;28;20425;-84
2023/12/21 06:16:11;;;;;;;0.57;0.35;;;;;;;;;;5038148;28;20402;-85
2023/12/21 06:18:37;;;;;;;1.20;0.40;;;;;;;;;;5033427;28;20425;-84
2023/12/21 06:21:04;;;;;;;1.30;0.90;;;;;;;;;;5060184;28;20745;-84
2023/12/21 06:23:30;;;;;;;0.20;0.20;;;;;;;;;;5052999;28;20612;-81
2023/12/21 06:25:56;;;;;;;0.10;0.10;;;;;;;;;;5052371;28;20422;-81
2023/12/21 06:28:22;;;;;;;0.50;0.50;;;;;;;;;;5055051;28;20776;-81
2023/12/21 06:30:48;;;;;;;0.10;0.10;;;;;;;;;;5065544;28;20419;-80
2023/12/21 06:33:14;;;;;;;0.10;0.10;;;;;;;;;;5059257;28;21007;-80
2023/12/21 06:35:40;;;;;;;0.40;0.40;;;;;;;;;;5049879;28;20424;-80
2023/12/21 06:38:07;;;;;;;0.60;0.50;;;;;;;;;;5087707;28;20911;-79
2023/12/21 06:40:33;;;;;;;0.30;0.30;;;;;;;;;;5067180;28;20392;-80
2023/12/21 06:42:59;;;;;;;0.20;0.10;;;;;;;;;;5054492;28;20431;-78
2023/12/21 06:45:26;;;;;;;0.10;0.10;;;;;;;;;;5089069;28;20458;-80
2023/12/21 06:47:52;;;;;;;1.00;0.20;;;;;;;;;;5085635;28;20434;-79
2023/12/21 06:50:20;;;;;;;0.20;0.20;;;;;;;;;;5088293;28;20450;-80
2023/12/21 06:52:46;;;;;;;0.40;0.40;;;;;;;;;;5037409;28;20423;-80
2023/12/21 06:55:13;;;;;;;0.10;0.10;;;;;;;;;;5052005;28;20403;-80
2023/12/21 06:57:39;;;;;;;0.20;0.20;;;;;;;;;;5052773;28;20396;-79
2023/12/21 07:00:06;;;;;;;0.10;0.10;;;;;;;;;;5054144;28;20417;-80
2023/12/21 07:02:32;;;;;;;0.20;0.20;;;;;;;;;;5056505;28;20460;-83
2023/12/21 07:04:59;;;;;;;0.17;0.17;;;;;;;;;;5062217;28;20506;-83
2023/12/21 07:07:25;;;;;;;0.10;0.10;;;;;;;;;;5056684;28;20427;-84
2023/12/21 07:09:51;;;;;;;0.10;0.10;;;;;;;;;;5066039;28;20468;-83
2023/12/21 07:12:17;;;;;;;0.30;0.30;;;;;;;;;;5042643;28;20895;-82
2023/12/21 07:14:43;;;;;;;1.00;0.90;;;;;;;;;;5059992;28;20922;-83
2023/12/21 07:17:09;;;;;;;0.20;0.20;;;;;;;;;;5040988;28;20425;-82
2023/12/21 07:19:37;;;;;;;0.20;0.20;;;;;;;;;;5045125;28;20428;-83
2023/12/21 07:22:04;;;;;;;5.10;0.20;;;;;;;;;;5040030;28;20429;-83
2023/12/21 07:24:30;;;;;;;2.70;0.70;;;;;;;;;;5064257;28;20751;-82
2023/12/21 07:26:56;;;;;;;0.20;0.20;;;;;;;;;;5037969;28;20473;-79
2023/12/21 07:29:23;;;;;;;0.10;0.10;;;;;;;;;;5049872;28;20518;-79
2023/12/21 07:31:49;;;;;;;0.40;0.40;;;;;;;;;;5067300;28;20768;-79
2023/12/21 07:34:15;;;;;;;0.20;0.20;;;;;;;;;;5053376;28;20427;-79
2023/12/21 07:36:41;;;;;;;0.13;0.13;;;;;;;;;;5040762;28;20475;-79
2023/12/21 07:39:07;;;;;;;2.50;1.60;;;;;;;;;;5051546;28;20459;-79
2023/12/21 07:41:34;;;;;;;0.20;0.20;;;;;;;;;;5060367;28;20407;-79
2023/12/21 07:44:00;;;;;;;0.10;0.10;;;;;;;;;;5067165;28;20439;-79
2023/12/21 07:46:26;;;;;;;0.05;0.05;;;;;;;;;;5055059;28;21084;-80
2023/12/21 07:48:53;;;;;;;0.10;0.10;;;;;;;;;;5069254;28;20476;-79
2023/12/21 07:51:19;;;;;;;0.20;0.20;;;;;;;;;;5068799;28;20423;-79
2023/12/21 07:53:45;;;;;;;0.10;0.10;;;;;;;;;;5042353;28;20408;-78
2023/12/21 07:56:11;;;;;;;1.90;0.60;;;;;;;;;;5042336;28;20425;-78
2023/12/21 07:58:37;;;;;;;0.40;0.40;;;;;;;;;;5052539;28;20903;-79
2023/12/21 08:01:03;;;;;;;0.10;0.10;;;;;;;;;;5054566;28;20514;-79
2023/12/21 08:03:29;;;;;;;0.60;0.20;;;;;;;;;;5084247;28;20396;-78
2023/12/21 08:05:58;;;;;;;0.20;0.20;;;;;;;;;;5070418;28;20392;-79
2023/12/21 08:08:24;;;;;;;0.37;0.37;;;;;;;;;;5052035;28;21001;-78
2023/12/21 08:10:50;;;;;;;0.82;0.82;;;;;;;;;;5073364;28;20435;-78
2023/12/21 08:13:16;;;;;;;0.10;0.10;;;;;;;;;;5066799;28;20426;-80
2023/12/21 08:15:42;;;;;;;0.10;0.10;;;;;;;;;;5072155;28;20406;-78
2023/12/21 08:18:13;;;;;;;0.80;0.27;;;;;;;;;;5058699;28;21161;-79
2023/12/21 08:20:41;;;;;;;0.20;0.20;;;;;;;;;;5042068;28;20831;-78
2023/12/21 08:23:07;;;;;;;0.60;0.60;;;;;;;;;;5043475;28;20457;-79
2023/12/21 08:25:34;;;;;;;0.10;0.10;;;;;;;;;;5047650;28;20400;-81
2023/12/21 08:28:00;;;;;;;0.20;0.20;;;;;;;;;;5050066;28;20460;-81
2023/12/21 08:32:13;;;;;;;3.20;0.75;;;;;;;;;;5147660;27;20358;-79
2023/12/21 08:34:39;;;;;;;0.20;0.20;;;;;;;;;;5130340;27;20980;-78
2023/12/21 08:37:06;;;;;;;0.50;0.50;;;;;;;;;;5111027;28;20439;-80
2023/12/21 08:39:32;;;;;;;0.20;0.20;;;;;;;;;;5093550;28;20410;-80
2023/12/21 08:41:58;;;;;;;0.20;0.20;;;;;;;;;;5131910;27;20429;-80
2023/12/21 08:44:24;;;;;;;0.20;0.20;;;;;;;;;;5139553;27;20400;-80
2023/12/21 08:46:50;;;;;;;0.70;0.70;;;;;;;;;;5115957;27;20461;-81
2023/12/21 08:49:16;;;;;;;1.80;1.00;;;;;;;;;;5128238;27;20405;-80
2023/12/21 08:51:42;;;;;;;4.15;0.63;;;;;;;;;;5158404;27;20423;-81
2023/12/21 08:54:08;;;;;;;0.20;0.20;;;;;;;;;;5144869;27;20395;-80
2023/12/21 08:56:34;;;;;;;1.40;0.38;;;;;;;;;;5094721;28;21010;-81
2023/12/21 08:59:04;;;;;;;0.50;0.50;;;;;;;;;;5106111;28;20444;-81
2023/12/21 09:01:30;;;;;;;0.30;0.30;;;;;;;;;;5111866;27;20424;-81
2023/12/21 09:03:58;;;;;;;1.00;0.30;;;;;;;;;;5117810;27;20457;-80
2023/12/21 09:06:24;;;;;;;0.20;0.20;;;;;;;;;;5136873;27;20415;-80
2023/12/21 09:08:50;;;;;;;0.20;0.20;;;;;;;;;;5138625;27;20452;-80
2023/12/21 09:11:16;;;;;;;0.32;0.32;;;;;;;;;;5136513;27;20435;-80
2023/12/21 09:13:42;;;;;;;0.30;0.30;;;;;;;;;;5119365;27;20889;-80
2023/12/21 09:17:04;;;;;;;0.10;0.10;;;;;;;;;;5148163;27;20390;-80
2023/12/21 09:19:32;;;;;;;0.30;0.20;;;;;;;;;;5138750;27;20827;-80
2023/12/21 09:21:59;;;;;;;0.90;0.30;;;;;;;;;;5164634;27;21026;-80
2023/12/21 09:24:25;;;;;;;0.20;0.03;;;;;;;;;;5137795;27;20424;-81
2023/12/21 09:26:51;;;;;;;0.30;0.25;;;;;;;;;;5138336;27;20425;-80
2023/12/21 09:29:17;;;;;;;0.10;0.10;;;;;;;;;;5117335;27;20772;-81
2023/12/21 09:31:43;;;;;;;0.50;0.47;;;;;;;;;;5111093;27;20418;-80
2023/12/21 09:34:11;;;;;;;12.70;0.50;;;;;;;;;;5134871;27;20440;-79
2023/12/21 09:36:37;;;;;;;0.10;0.10;;;;;;;;;;5135170;27;20429;-76
2023/12/21 09:39:03;;;;;;;0.68;0.68;;;;;;;;;;5144943;27;20426;-77
2023/12/21 09:41:29;;;;;;;0.28;0.28;;;;;;;;;;5123639;27;20401;-79
2023/12/21 09:43:57;;;;;;;2.10;1.50;;;;;;;;;;5127965;27;20409;-77
2023/12/21 09:46:25;;;;;;;0.20;0.20;;;;;;;;;;5127144;28;20418;-77
2023/12/21 09:48:55;;;;;;;0.20;0.20;;;;;;;;;;5119708;27;20416;-77
2023/12/21 09:51:22;;;;;;;0.10;0.10;;;;;;;;;;5146428;27;20877;-77
2023/12/21 09:53:48;;;;;;;0.20;0.20;;;;;;;;;;5141740;27;20427;-77
2023/12/21 09:56:15;;;;;;;0.10;0.10;;;;;;;;;;5122087;27;20416;-81
2023/12/21 09:58:42;;;;;;;0.20;0.20;;;;;;;;;;5108110;28;20396;-81
2023/12/21 10:01:08;;;;;;;0.20;0.20;;;;;;;;;;5126505;27;20441;-80
2023/12/21 10:03:34;;;;;;;1.30;0.50;;;;;;;;;;5130426;27;20406;-80
2023/12/21 10:06:04;;;;;;;0.40;0.30;;;;;;;;;;5125745;27;20484;-80
2023/12/21 10:08:33;;;;;;;0.10;0.10;;;;;;;;;;5124486;27;20405;-80
2023/12/21 10:10:59;;;;;;;0.60;0.60;;;;;;;;;;5141507;27;20398;-80
2023/12/21 10:13:26;;;;;;;1.30;1.20;;;;;;;;;;5142762;27;20402;-80
2023/12/21 10:16:03;;;;;;;0.10;0.10;;;;;;;;;;5129575;27;20432;-80
2023/12/21 10:18:29;;;;;;;0.20;0.20;;;;;;;;;;5126259;27;20568;-80
2023/12/21 10:20:56;;;;;;;0.20;0.20;;;;;;;;;;5099900;28;20422;-80
2023/12/21 10:23:22;;;;;;;2.30;0.35;;;;;;;;;;5123966;27;20899;-80
2023/12/21 10:25:49;;;;;;;1.10;0.90;;;;;;;;;;5123994;27;20436;-79
2023/12/21 10:28:16;;;;;;;1.00;0.80;;;;;;;;;;5084180;28;20420;-81
2023/12/21 10:30:42;;;;;;;0.20;0.20;;;;;;;;;;5097324;27;20447;-79
2023/12/21 10:33:09;;;;;;;0.30;0.30;;;;;;;;;;5100248;28;20427;-82
2023/12/21 10:35:36;;;;;;;0.10;0.10;;;;;;;;;;5100721;28;20424;-82
2023/12/21 10:38:03;;;;;;;0.70;0.70;;;;;;;;;;5081641;28;20682;-82
2023/12/21 10:40:30;;;;;;;0.70;0.70;;;;;;;;;;5103270;28;20453;-81
2023/12/21 10:42:56;;;;;;;20.40;3.92;;;;;;;;;;5083435;28;20618;-82
2023/12/21 10:45:24;;;;;;;2.40;1.05;;;;;;;;;;5088266;28;20748;-81
2023/12/21 10:47:53;;;;;;;0.70;0.70;;;;;;;;;;5090322;28;20462;-82
2023/12/21 10:50:20;;;;;;;0.10;0.10;;;;;;;;;;5083643;28;20522;-81
2023/12/21 10:52:47;;;;;;;0.38;0.38;;;;;;;;;;5085433;28;20495;-80
2023/12/21 10:55:17;;;;;;;0.70;0.30;;;;;;;;;;5087926;28;20421;-80
2023/12/21 10:57:44;;;;;;;1.60;0.80;;;;;;;;;;5102032;28;20440;-81
2023/12/21 11:00:15;;;;;;;0.30;0.30;;;;;;;;;;5134021;27;20887;-81
2023/12/21 11:02:48;;;;;;;0.35;0.35;;;;;;;;;;5119288;27;20402;-81
2023/12/21 11:05:22;;;;;;;1.60;0.40;;;;;;;;;;5102682;28;20968;-82
2023/12/21 11:07:53;;;;;;;0.53;0.53;;;;;;;;;;5112767;27;20792;-81
2023/12/21 11:10:21;;;;;;;0.10;0.10;;;;;;;;;;5098467;28;20422;-81
2023/12/21 11:12:47;;;;;;;1.00;0.50;;;;;;;;;;5106801;28;20959;-81
2023/12/21 11:15:21;;;;;;;0.60;0.60;;;;;;;;;;5106806;28;20431;-80
2023/12/21 11:17:50;;;;;;;0.20;0.20;;;;;;;;;;5105910;28;20939;-81
2023/12/21 11:20:18;;;;;;;0.70;0.30;;;;;;;;;;5109595;28;20403;-81
2023/12/21 11:22:45;;;;;;;0.20;0.20;;;;;;;;;;5104046;28;20792;-81
2023/12/21 11:25:14;;;;;;;0.25;0.25;;;;;;;;;;5107635;28;20450;-81
2023/12/21 11:27:41;;;;;;;0.10;0.10;;;;;;;;;;5092504;28;20413;-82
2023/12/21 11:30:11;;;;;;;2.80;0.80;;;;;;;;;;5108635;28;20427;-82
2023/12/21 11:32:38;;;;;;;0.45;0.35;;;;;;;;;;5109455;28;20420;-82
2023/12/21 11:35:16;;;;;;;2.38;1.50;;;;;;;;;;5092704;28;20464;-81
2023/12/21 11:37:42;;;;;;;4.80;1.35;;;;;;;;;;5111061;28;20452;-80
2023/12/21 11:40:11;;;;;;;5.70;0.20;;;;;;;;;;5094127;28;20431;-81
2023/12/21 11:44:05;;;;;;;1.50;0.90;;;;;;;;;;5158123;27;20365;-81
2023/12/21 11:46:35;;;;;;;0.70;0.70;;;;;;;;;;5113292;27;20455;-82
2023/12/21 11:49:04;;;;;;;1.20;0.80;;;;;;;;;;5104266;27;20457;-81
2023/12/21 11:51:31;;;;;;;1.17;1.10;;;;;;;;;;5119264;27;20979;-81
2023/12/21 11:54:03;;;;;;;2.20;1.05;;;;;;;;;;5111380;27;20421;-81
2023/12/21 11:56:36;;;;;;;0.20;0.20;;;;;;;;;;5130738;27;20924;-81
2023/12/21 11:59:05;;;;;;;9.93;1.75;;;;;;;;;;5127368;27;20407;-81
2023/12/21 12:01:33;;;;;;;1.20;0.50;;;;;;;;;;5118463;27;20414;-80
2023/12/21 12:03:59;;;;;;;1.70;1.00;;;;;;;;;;5125908;27;20424;-81
2023/12/21 12:06:28;;;;;;;6.65;2.00;;;;;;;;;;5127088;27;20415;-81
2023/12/21 12:08:56;;;;;;;10.52;2.45;;;;;;;;;;5125355;27;20453;-81
2023/12/21 12:11:22;;;;;;;2.50;0.60;;;;;;;;;;5114416;27;20400;-81
2023/12/21 12:13:48;;;;;;;1.20;0.70;;;;;;;;;;5120580;27;20411;-81
2023/12/21 12:16:17;;;;;;;0.10;0.10;;;;;;;;;;5095271;27;20914;-81
2023/12/21 12:18:43;;;;;;;28.33;5.10;;;;;;;;;;5081976;27;20401;-81
2023/12/21 12:21:10;;;;;;;24.92;5.63;;;;;;;;;;5100303;28;20807;-80
2023/12/21 12:23:36;;;;;;;24.13;4.68;;;;;;;;;;5077849;28;20427;-80
2023/12/21 12:26:02;;;;;;;28.60;6.05;;;;;;;;;;5095492;28;20938;-81
2023/12/21 12:28:28;;;;;;;28.98;5.60;;;;;;;;;;5091039;27;20412;-82
2023/12/21 12:30:55;;;;;;;28.55;6.18;;;;;;;;;;5102217;27;20417;-81
2023/12/21 12:33:21;;;;;;;29.00;5.65;;;;;;;;;;5103725;28;21072;-81
2023/12/21 12:35:50;;;;;;;29.38;6.05;;;;;;;;;;5105679;27;20485;-81
2023/12/21 12:38:17;;;;;;;24.77;4.90;;;;;;;;;;5082206;28;20428;-82
2023/12/21 12:40:43;;;;;;;23.10;5.90;;;;;;;;;;5086105;28;20405;-81
2023/12/21 12:43:09;;;;;;;32.83;6.15;;;;;;;;;;5087963;27;20485;-81
2023/12/21 12:45:35;;;;;;;31.08;5.40;;;;;;;;;;5083198;28;20393;-81
2023/12/21 12:48:02;;;;;;;28.23;6.28;;;;;;;;;;5101702;27;20762;-82
2023/12/21 12:50:28;;;;;;;26.83;5.13;;;;;;;;;;5084753;28;20446;-81
2023/12/21 12:52:54;;;;;;;27.30;6.50;;;;;;;;;;5107109;28;20883;-82
2023/12/21 12:55:21;;;;;;;31.87;6.73;;;;;;;;;;5084883;28;20402;-82
2023/12/21 12:57:55;;;;;;;29.45;5.00;;;;;;;;;;5080853;28;20420;-81
2023/12/21 13:00:21;;;;;;;27.73;6.57;;;;;;;;;;5084094;27;20460;-82
2023/12/21 13:02:47;;;;;;;28.83;6.30;;;;;;;;;;5095551;28;20911;-81
2023/12/21 13:05:17;;;;;;;29.02;4.90;;;;;;;;;;5086863;28;20398;-82
2023/12/21 13:10:53;;;;;;;21.03;5.20;;;;;;;;;;5124540;27;20906;-82
2023/12/21 13:13:19;;;;;;;24.73;5.05;;;;;;;;;;5122961;27;20726;-81
2023/12/21 13:15:46;;;;;;;26.00;5.65;;;;;;;;;;5111658;27;20405;-82
2023/12/21 13:18:12;;;;;;;22.83;5.17;;;;;;;;;;5094889;28;20416;-81
2023/12/21 13:20:38;;;;;;;23.02;5.88;;;;;;;;;;5084517;28;20511;-81
2023/12/21 13:23:04;;;;;;;21.17;5.80;;;;;;;;;;5133122;27;20505;-83
2023/12/21 13:25:31;;;;;;;22.90;6.22;;;;;;;;;;5087489;28;20424;-82
2023/12/21 13:27:57;;;;;;;25.45;6.05;;;;;;;;;;5081671;28;20901;-82
2023/12/21 13:30:23;;;;;;;25.70;5.82;;;;;;;;;;5082526;28;20421;-83
2023/12/21 13:32:49;;;;;;;20.20;5.73;;;;;;;;;;5113242;28;20449;-82
2023/12/21 13:35:17;;;;;;;20.75;5.07;;;;;;;;;;5133822;27;20923;-83
2023/12/21 13:37:43;;;;;;;23.92;5.90;;;;;;;;;;5130569;27;20401;-79
2023/12/21 13:40:09;;;;;;;25.93;6.33;;;;;;;;;;5121310;27;20468;-78
2023/12/21 13:42:36;;;;;;;27.40;5.85;;;;;;;;;;5098537;28;20426;-78
2023/12/21 13:45:05;;;;;;;22.90;5.82;;;;;;;;;;5085027;28;20422;-78
2023/12/21 13:47:34;;;;;;;23.50;5.50;;;;;;;;;;5094772;28;20418;-79
2023/12/21 13:50:00;;;;;;;25.27;5.90;;;;;;;;;;5086993;28;20428;-78
2023/12/21 13:52:26;;;;;;;21.65;5.00;;;;;;;;;;5084716;28;20402;-82
2023/12/21 13:54:52;;;;;;;24.48;5.50;;;;;;;;;;5104995;28;20761;-83
2023/12/21 13:57:19;;;;;;;24.77;5.80;;;;;;;;;;5093944;28;20898;-83
2023/12/21 13:59:45;;;;;;;21.17;6.13;;;;;;;;;;5105113;28;20508;-82
2023/12/21 14:02:11;;;;;;;24.35;5.63;;;;;;;;;;5081376;28;20505;-83
2023/12/21 14:04:38;;;;;;;21.65;5.65;;;;;;;;;;5096201;28;20422;-83
2023/12/21 14:07:04;;;;;;;53.92;8.93;;;;;;;;;;5101654;28;20409;-82
2023/12/21 14:09:30;;;;;;;16.15;1.08;;;;;;;;;;5099292;28;20458;-81
2023/12/21 14:11:56;;;;;;;0.90;0.40;;;;;;;;;;5098883;28;20526;-82
2023/12/21 14:14:22;;;;;;;0.10;0.10;;;;;;;;;;5101496;28;20417;-82
2023/12/21 14:16:48;;;;;;;0.10;0.10;;;;;;;;;;5087674;28;20426;-83
2023/12/21 14:19:14;;;;;;;0.40;0.32;;;;;;;;;;5089784;28;20445;-83
2023/12/21 14:21:40;;;;;;;1.20;0.60;;;;;;;;;;5095855;28;20834;-84
2023/12/21 14:24:06;;;;;;;0.28;0.28;;;;;;;;;;5087673;28;20513;-85
2023/12/21 14:26:33;;;;;;;2.20;0.70;;;;;;;;;;5071649;28;20885;-84
2023/12/21 14:28:59;;;;;;;0.20;0.20;;;;;;;;;;5091531;28;20428;-84
2023/12/21 14:31:25;;;;;;;0.20;0.20;;;;;;;;;;5094380;28;20977;-84
2023/12/21 14:33:51;;;;;;;0.10;0.10;;;;;;;;;;5093814;28;20414;-84
2023/12/21 14:36:18;;;;;;;0.50;0.50;;;;;;;;;;5057010;28;20468;-84
2023/12/21 14:38:44;;;;;;;0.20;0.20;;;;;;;;;;5088172;28;20420;-84
2023/12/21 14:41:10;;;;;;;0.10;0.10;;;;;;;;;;5073451;28;20427;-85